Time;durP1;ratioP1;P1;durP2;ratioP2;P2;SDS_P1;SDS_P2;PMS_P1;PMS_P2;Temp;Humidity;BMP_temperature;BMP_pressure;BME280_temperature;BME280_humidity;BME280_pressure;Samples;Min_cycle;Max_cycle;Signal;HPM_P1;HPM_P2
2022/04/06 00:01:44;;;;;;;;;;;;;;;14.17;45.00;98975.97;4482727;31;35150;-61
2022/04/06 00:04:13;;;;;;;;;;;;;;;14.22;44.84;98987.06;4482416;31;34622;-62
2022/04/06 00:06:41;;;;;;;;;;;;;;;14.37;44.27;98981.97;4494564;31;34515;-62
2022/04/06 00:09:18;;;;;;;;;;;;;;;14.25;44.67;98983.22;4483746;31;33194;-64
2022/04/06 00:11:46;;;;;;;;;;;;;;;14.20;45.00;98991.78;4481407;31;34023;-61
2022/04/06 00:14:15;;;;;;;;;;;;;;;14.32;44.40;98989.69;4487690;31;33284;-62
2022/04/06 00:16:43;;;;;;;;;;;;;;;14.27;44.29;98987.47;4487371;31;32882;-63
2022/04/06 00:19:10;;;;;;;;;;;;;;;14.24;44.54;98987.78;4497270;31;35412;-63
2022/04/06 00:21:38;;;;;;;;;;;;;;;14.19;44.96;98993.66;4494763;31;34020;-69
2022/04/06 00:24:06;;;;;;;;;;;;;;;14.19;45.38;98996.34;4495801;31;33005;-64
2022/04/06 00:26:35;;;;;;;;;;;;;;;14.21;45.14;98999.69;4489620;31;34200;-65
2022/04/06 00:29:04;;;;;;;;;;;;;;;13.99;45.93;98990.25;4484384;31;34881;-63
2022/04/06 00:31:32;;;;;;;;;;;;;;;14.06;45.17;99001.28;4486078;31;33016;-65
2022/04/06 00:34:00;;;;;;;;;;;;;;;14.21;44.75;98999.69;4489430;31;34321;-65
2022/04/06 00:36:28;;;;;;;;;;;;;;;14.22;44.77;98995.16;4495192;31;33668;-68
2022/04/06 00:38:57;;;;;;;;;;;;;;;14.27;44.62;99000.09;4492103;31;34423;-65
2022/04/06 00:41:24;;;;;;;;;;;;;;;14.04;44.99;99003.25;4486187;32;35032;-65
2022/04/06 00:44:12;;;;;;;;;;;;;;;13.98;45.25;99001.19;4486308;31;33453;-66
2022/04/06 00:46:41;;;;;;;;;;;;;;;13.89;45.51;99002.09;4486352;31;34203;-64
2022/04/06 00:49:11;;;;;;;;;;;;;;;13.90;45.64;99009.16;4477727;32;34618;-65
2022/04/06 00:51:46;;;;;;;;;;;;;;;13.89;45.85;99002.09;4480406;31;34836;-68
2022/04/06 00:54:16;;;;;;;;;;;;;;;13.86;45.52;99007.78;4488515;31;33433;-68
2022/04/06 00:56:44;;;;;;;;;;;;;;;13.61;46.28;99001.31;4498936;31;33270;-69
2022/04/06 00:59:12;;;;;;;;;;;;;;;13.89;45.98;98996.72;4496095;31;35437;-69
2022/04/06 01:01:40;;;;;;;;;;;;;;;13.98;45.41;99004.72;4486211;31;33111;-67
2022/04/06 01:04:08;;;;;;;;;;;;;;;14.07;45.69;99004.81;4487913;31;34288;-67
2022/04/06 01:06:36;;;;;;;;;;;;;;;14.14;45.29;99004.00;4489902;31;34427;-68
2022/04/06 01:09:04;;;;;;;;;;;;;;;13.65;46.61;99006.25;4492248;31;34521;-68
2022/04/06 01:11:32;;;;;;;;;;;;;;;13.93;45.92;99000.78;4490469;31;32983;-67
2022/04/06 01:14:01;;;;;;;;;;;;;;;13.79;46.43;99004.03;4493539;31;33237;-67
2022/04/06 01:16:29;;;;;;;;;;;;;;;13.64;46.41;99007.25;4486290;31;33039;-67
2022/04/06 01:18:58;;;;;;;;;;;;;;;13.73;46.07;99008.16;4489119;31;34274;-69
2022/04/06 01:21:26;;;;;;;;;;;;;;;13.77;45.84;99008.72;4485914;32;34130;-68
2022/04/06 01:23:55;;;;;;;;;;;;;;;13.66;45.93;99017.84;4486857;31;32228;-68
2022/04/06 01:26:24;;;;;;;;;;;;;;;13.77;45.70;99017.63;4486709;31;34200;-68
2022/04/06 01:28:52;;;;;;;;;;;;;;;13.85;45.42;99006.12;4486399;31;33116;-67
2022/04/06 01:31:21;;;;;;;;;;;;;;;13.65;46.09;99010.78;4501625;31;32839;-69
2022/04/06 01:33:49;;;;;;;;;;;;;;;13.72;45.81;99018.09;4498364;31;33188;-68
2022/04/06 01:36:18;;;;;;;;;;;;;;;13.71;46.04;99016.41;4486015;31;33134;-67
2022/04/06 01:38:46;;;;;;;;;;;;;;;13.73;46.01;99005.47;4490000;31;35288;-68
2022/04/06 01:41:14;;;;;;;;;;;;;;;13.66;46.10;99013.31;4485386;32;33587;-68
2022/04/06 01:43:43;;;;;;;;;;;;;;;13.83;45.96;99008.09;4484454;32;32191;-70
2022/04/06 01:46:10;;;;;;;;;;;;;;;13.91;45.78;98997.44;4484451;32;32998;-70
2022/04/06 01:52:12;;;;;;;;;;;;;;;13.63;46.76;99005.56;4486105;32;35335;-67
2022/04/06 01:54:14;;;;;;;;;;;;;;;13.89;46.06;99002.09;4487748;31;33418;-67
2022/04/06 01:56:42;;;;;;;;;;;;;;;13.90;45.99;99007.34;4497569;31;33902;-67
2022/04/06 01:59:10;;;;;;;;;;;;;;;13.99;45.65;99002.87;4494498;31;34441;-68
2022/04/06 02:01:38;;;;;;;;;;;;;;;13.96;45.61;99005.88;4485566;31;35147;-69
2022/04/06 02:04:14;;;;;;;;;;;;;;;13.81;45.78;99008.25;4477810;31;33485;-67
2022/04/06 02:06:42;;;;;;;;;;;;;;;13.77;45.88;98995.25;4493593;31;33827;-67
2022/04/06 02:09:17;;;;;;;;;;;;;;;13.12;47.77;99001.56;4501392;31;35478;-68
2022/04/06 02:11:45;;;;;;;;;;;;;;;13.08;47.91;99000.19;4490817;31;32250;-67
2022/04/06 02:14:13;;;;;;;;;;;;;;;13.36;47.18;98997.53;4485442;31;33502;-68
2022/04/06 02:16:42;;;;;;;;;;;;;;;13.65;46.45;99002.72;4488956;31;33771;-68
2022/04/06 02:19:11;;;;;;;;;;;;;;;13.87;45.60;98980.75;4483205;31;34052;-67
2022/04/06 02:21:40;;;;;;;;;;;;;;;13.80;45.86;98981.50;4485390;31;34312;-67
2022/04/06 02:24:08;;;;;;;;;;;;;;;13.67;45.94;98992.66;4483476;31;33027;-68
2022/04/06 02:26:36;;;;;;;;;;;;;;;13.57;45.96;98995.41;4488666;31;34008;-67
2022/04/06 02:29:06;;;;;;;;;;;;;;;13.56;45.62;98988.34;4485832;31;33978;-68
2022/04/06 02:31:35;;;;;;;;;;;;;;;13.32;45.67;98983.53;4496358;31;33970;-69
2022/04/06 02:34:05;;;;;;;;;;;;;;;13.51;45.44;98996.88;4498819;31;33220;-67
2022/04/06 02:36:35;;;;;;;;;;;;;;;13.40;45.43;98996.22;4498009;31;32837;-65
2022/04/06 02:39:05;;;;;;;;;;;;;;;13.35;45.39;98998.50;4489096;31;34524;-64
2022/04/06 02:41:34;;;;;;;;;;;;;;;12.40;47.92;99010.31;4482851;31;35250;-64
2022/04/06 02:44:03;;;;;;;;;;;;;;;12.44;48.52;99006.34;4485420;31;33504;-64
2022/04/06 02:46:33;;;;;;;;;;;;;;;12.51;48.56;99007.47;4485679;31;33280;-63
2022/04/06 02:49:02;;;;;;;;;;;;;;;12.74;47.93;98999.91;4492435;31;34281;-64
2022/04/06 02:51:32;;;;;;;;;;;;;;;12.82;47.89;99000.88;4468013;32;32507;-65
2022/04/06 02:54:02;;;;;;;;;;;;;;;12.65;47.96;98992.72;4481792;32;33365;-63
2022/04/06 02:56:31;;;;;;;;;;;;;;;12.83;47.90;98991.81;4480407;32;35125;-66
2022/04/06 02:59:01;;;;;;;;;;;;;;;12.84;47.78;99000.72;4481956;31;34340;-65
2022/04/06 03:01:32;;;;;;;;;;;;;;;13.07;47.10;99003.88;4489545;31;35262;-64
2022/04/06 03:04:06;;;;;;;;;;;;;;;13.02;47.41;99003.47;4486937;31;32152;-64
2022/04/06 03:06:39;;;;;;;;;;;;;;;13.13;47.08;99002.41;4494046;31;34092;-65
2022/04/06 03:09:09;;;;;;;;;;;;;;;13.15;46.88;99012.03;4498284;31;34010;-64
2022/04/06 03:11:39;;;;;;;;;;;;;;;13.14;47.03;99021.09;4484153;31;34101;-68
2022/04/06 03:14:09;;;;;;;;;;;;;;;13.39;46.42;99010.69;4484938;31;32327;-64
2022/04/06 03:16:39;;;;;;;;;;;;;;;13.28;47.03;99014.41;4491142;31;33397;-64
2022/04/06 03:19:08;;;;;;;;;;;;;;;13.42;46.63;99013.91;4486340;31;33276;-65
2022/04/06 03:21:37;;;;;;;;;;;;;;;13.37;46.89;99015.34;4476611;31;33218;-66
2022/04/06 03:24:06;;;;;;;;;;;;;;;13.41;46.67;99016.72;4489072;31;33826;-65
2022/04/06 03:26:35;;;;;;;;;;;;;;;13.54;46.06;99011.00;4484511;31;35189;-69
2022/04/06 03:29:03;;;;;;;;;;;;;;;13.47;45.88;99008.06;4495713;31;32960;-66
2022/04/06 03:31:33;;;;;;;;;;;;;;;13.19;46.38;99007.19;4490940;31;33245;-66
2022/04/06 03:34:02;;;;;;;;;;;;;;;13.30;45.92;99003.50;4485419;31;32537;-67
2022/04/06 03:36:32;;;;;;;;;;;;;;;13.14;46.46;99004.13;4492415;31;33343;-67
2022/04/06 03:39:01;;;;;;;;;;;;;;;12.81;47.45;99011.75;4489501;31;34141;-66
2022/04/06 03:41:31;;;;;;;;;;;;;;;12.93;47.17;99009.72;4495698;31;32804;-66
2022/04/06 03:44:01;;;;;;;;;;;;;;;13.22;46.44;99005.06;4482669;32;35726;-69
2022/04/06 03:46:30;;;;;;;;;;;;;;;12.59;47.98;99004.91;4482533;31;33275;-70
2022/04/06 03:49:00;;;;;;;;;;;;;;;12.92;47.06;99008.03;4483513;31;34449;-66
2022/04/06 03:51:29;;;;;;;;;;;;;;;12.53;47.76;99013.53;4482997;31;33321;-66
2022/04/06 03:53:57;;;;;;;;;;;;;;;12.64;47.70;99020.56;4486329;31;33350;-68
2022/04/06 03:56:26;;;;;;;;;;;;;;;12.47;48.18;99020.31;4485647;31;34197;-66
2022/04/06 03:58:54;;;;;;;;;;;;;;;12.20;48.97;99021.09;4487008;31;34379;-65
2022/04/06 04:01:22;;;;;;;;;;;;;;;12.57;47.99;99023.81;4487180;31;34437;-66
2022/04/06 04:03:53;;;;;;;;;;;;;;;12.69;47.70;99016.47;4492473;31;33431;-67
2022/04/06 04:06:21;;;;;;;;;;;;;;;12.55;47.90;99015.09;4493018;31;34215;-64
2022/04/06 04:08:49;;;;;;;;;;;;;;;12.63;48.01;99014.34;4488885;31;35156;-65
2022/04/06 04:11:18;;;;;;;;;;;;;;;12.47;49.01;99019.47;4483077;31;34371;-65
2022/04/06 04:13:46;;;;;;;;;;;;;;;12.71;48.06;99024.34;4481388;32;34702;-67
2022/04/06 04:16:14;;;;;;;;;;;;;;;12.65;48.40;99015.06;4490725;31;33744;-65
2022/04/06 04:18:43;;;;;;;;;;;;;;;13.01;47.55;99023.28;4490440;31;35240;-68
2022/04/06 04:23:59;;;;;;;;;;;;;;;12.89;48.01;99025.28;4482305;31;33422;-70
2022/04/06 04:26:29;;;;;;;;;;;;;;;13.02;47.76;99011.53;4481116;31;33797;-70
2022/04/06 04:28:57;;;;;;;;;;;;;;;12.96;47.97;99020.16;4482184;31;34429;-66
2022/04/06 04:31:26;;;;;;;;;;;;;;;13.14;47.47;99018.41;4488377;31;33678;-68
2022/04/06 04:33:55;;;;;;;;;;;;;;;13.28;47.31;99023.31;4487930;31;34376;-67
2022/04/06 04:36:24;;;;;;;;;;;;;;;13.49;46.68;99024.91;4486056;31;34102;-67
2022/04/06 04:38:53;;;;;;;;;;;;;;;13.50;46.42;99026.59;4493930;31;33969;-67
2022/04/06 04:41:22;;;;;;;;;;;;;;;12.79;48.14;99037.91;4485303;31;33518;-68
2022/04/06 04:43:50;;;;;;;;;;;;;;;12.95;48.01;99037.28;4481386;31;33325;-69
2022/04/06 04:46:19;;;;;;;;;;;;;;;12.51;48.82;99042.34;4492479;31;32902;-67
2022/04/06 04:48:47;;;;;;;;;;;;;;;12.66;49.00;99038.22;4468812;32;35361;-67
2022/04/06 04:51:15;;;;;;;;;;;;;;;12.69;49.25;99042.47;4480359;32;35157;-67
2022/04/06 04:53:44;;;;;;;;;;;;;;;12.87;48.75;99035.31;4479098;32;33178;-70
2022/04/06 04:56:12;;;;;;;;;;;;;;;12.96;48.75;99034.44;4480158;32;32956;-71
2022/04/06 04:58:40;;;;;;;;;;;;;;;13.14;48.47;99037.22;4480316;32;33857;-68
2022/04/06 05:01:08;;;;;;;;;;;;;;;13.07;48.45;99037.97;4481062;32;33064;-69
2022/04/06 05:03:37;;;;;;;;;;;;;;;13.33;47.98;99039.00;4488287;31;33448;-68
2022/04/06 05:06:05;;;;;;;;;;;;;;;13.28;48.21;99058.25;4495557;31;33853;-67
2022/04/06 05:08:34;;;;;;;;;;;;;;;13.57;47.32;99042.97;4488519;31;34406;-68
2022/04/06 05:11:03;;;;;;;;;;;;;;;13.47;47.72;99051.09;4489910;31;35054;-67
2022/04/06 05:13:31;;;;;;;;;;;;;;;13.56;47.82;99047.50;4483269;31;33163;-67
2022/04/06 05:16:00;;;;;;;;;;;;;;;13.51;47.87;99049.78;4482151;31;33942;-65
2022/04/06 05:18:29;;;;;;;;;;;;;;;13.79;47.20;99041.69;4494334;31;34255;-66
2022/04/06 05:20:58;;;;;;;;;;;;;;;13.90;47.14;99044.12;4486019;31;34421;-68
2022/04/06 05:23:27;;;;;;;;;;;;;;;13.63;48.14;99053.94;4490685;31;33321;-65
2022/04/06 05:25:56;;;;;;;;;;;;;;;13.88;47.37;99052.38;4483942;31;35037;-64
2022/04/06 05:28:25;;;;;;;;;;;;;;;14.09;46.86;99052.09;4489793;31;34455;-64
2022/04/06 05:30:53;;;;;;;;;;;;;;;14.04;47.28;99051.69;4495127;31;34239;-64
2022/04/06 05:33:22;;;;;;;;;;;;;;;13.87;47.70;99055.22;4496925;31;33175;-65
2022/04/06 05:35:51;;;;;;;;;;;;;;;14.22;46.90;99054.38;4496887;31;33933;-65
2022/04/06 05:38:20;;;;;;;;;;;;;;;14.02;47.25;99064.44;4482860;31;34125;-67
2022/04/06 05:40:48;;;;;;;;;;;;;;;14.05;47.37;99066.00;4469762;31;31550;-67
2022/04/06 05:43:16;;;;;;;;;;;;;;;14.21;46.82;99080.44;4487596;31;34134;-64
2022/04/06 05:45:45;;;;;;;;;;;;;;;14.56;46.10;99073.38;4487012;31;34207;-64
2022/04/06 05:48:14;;;;;;;;;;;;;;;14.54;46.36;99074.50;4497495;31;34405;-67
2022/04/06 05:50:42;;;;;;;;;;;;;;;14.53;46.82;99079.06;4484577;31;34234;-66
2022/04/06 05:53:11;;;;;;;;;;;;;;;14.60;46.75;99080.13;4483048;32;32393;-67
2022/04/06 05:55:39;;;;;;;;;;;;;;;14.78;46.60;99080.09;4494620;31;35274;-68
2022/04/06 05:58:08;;;;;;;;;;;;;;;14.82;46.77;99089.53;4476931;31;34162;-65
2022/04/06 06:00:36;;;;;;;;;;;;;;;14.61;47.47;99089.91;4488366;31;34060;-65
2022/04/06 06:03:05;;;;;;;;;;;;;;;14.77;47.00;99089.19;4482412;31;32425;-65
2022/04/06 06:05:34;;;;;;;;;;;;;;;14.66;47.23;99092.97;4490476;31;33592;-65
2022/04/06 06:08:03;;;;;;;;;;;;;;;14.74;47.33;99091.34;4485092;31;35500;-67
2022/04/06 06:10:31;;;;;;;;;;;;;;;15.04;46.70;99088.19;4485854;31;33800;-66
2022/04/06 06:12:59;;;;;;;;;;;;;;;14.88;47.11;99085.38;4481660;32;34296;-68
2022/04/06 06:15:30;;;;;;;;;;;;;;;15.17;45.93;99087.75;4480496;32;34197;-66
2022/04/06 06:18:09;;;;;;;;;;;;;;;15.40;45.60;99085.34;4484285;32;35365;-64
2022/04/06 06:20:51;;;;;;;;;;;;;;;15.49;45.34;99081.66;4484671;32;34864;-66
2022/04/06 06:23:24;;;;;;;;;;;;;;;15.69;44.77;99084.13;4486346;31;33130;-65
2022/04/06 06:25:58;;;;;;;;;;;;;;;15.83;44.32;99086.22;4489447;31;32826;-66
2022/04/06 06:28:36;;;;;;;;;;;;;;;15.92;44.06;99079.84;4485626;31;33116;-66
2022/04/06 06:31:14;;;;;;;;;;;;;;;16.00;44.17;99076.31;4492753;31;33219;-65
2022/04/06 06:33:56;;;;;;;;;;;;;;;16.17;44.12;99083.41;4488358;31;32108;-64
2022/04/06 06:36:34;;;;;;;;;;;;;;;16.44;43.54;99082.25;4497146;31;34284;-64
2022/04/06 06:39:11;;;;;;;;;;;;;;;16.60;43.24;99088.69;4491049;31;33460;-66
2022/04/06 06:41:52;;;;;;;;;;;;;;;16.36;43.04;99090.34;4492093;31;34183;-66
2022/04/06 06:44:29;;;;;;;;;;;;;;;16.39;43.13;99090.00;4487701;31;35632;-66
2022/04/06 06:47:03;;;;;;;;;;;;;;;17.02;41.94;99080.38;4487645;31;33774;-66
2022/04/06 06:49:37;;;;;;;;;;;;;;;17.19;41.28;99081.19;4497025;31;34277;-66
2022/04/06 06:52:16;;;;;;;;;;;;;;;17.20;41.56;99081.00;4482397;32;33203;-66
2022/04/06 06:54:58;;;;;;;;;;;;;;;17.44;40.15;99082.78;4483770;32;32207;-66
2022/04/06 06:57:32;;;;;;;;;;;;;;;17.00;41.11;99082.41;4489371;31;32806;-67
2022/04/06 07:00:11;;;;;;;;;;;;;;;16.75;42.10;99077.03;4492553;31;33666;-66
2022/04/06 07:02:45;;;;;;;;;;;;;;;16.59;40.90;99071.59;4488148;31;32916;-66
2022/04/06 07:05:28;;;;;;;;;;;;;;;17.32;39.38;99078.78;4490502;31;34201;-66
2022/04/06 07:08:01;;;;;;;;;;;;;;;17.09;39.86;99078.69;4492972;31;34016;-66
2022/04/06 07:10:50;;;;;;;;;;;;;;;16.21;40.90;99070.41;4487390;31;34099;-68
2022/04/06 07:13:25;;;;;;;;;;;;;;;16.44;41.10;99076.88;4483552;32;33778;-67
2022/04/06 07:16:14;;;;;;;;;;;;;;;16.66;39.94;99074.47;4485758;31;32064;-66
2022/04/06 07:18:58;;;;;;;;;;;;;;;16.37;40.24;99080.38;4494931;31;32923;-64
2022/04/06 07:21:42;;;;;;;;;;;;;;;17.19;39.16;99087.44;4492104;31;33600;-63
2022/04/06 07:24:21;;;;;;;;;;;;;;;16.10;40.13;99081.53;4486405;31;33123;-69
2022/04/06 07:26:58;;;;;;;;;;;;;;;16.28;40.44;99079.56;4491043;31;33850;-66
2022/04/06 07:29:27;;;;;;;;;;;;;;;16.23;40.92;99077.34;4483707;32;33092;-66
2022/04/06 07:32:07;;;;;;;;;;;;;;;16.15;40.74;99077.34;4483432;32;33431;-63
2022/04/06 07:34:44;;;;;;;;;;;;;;;16.16;40.05;99079.03;4483727;32;33122;-63
2022/04/06 07:37:25;;;;;;;;;;;;;;;15.40;42.25;99081.78;4489885;31;33344;-65
2022/04/06 07:40:10;;;;;;;;;;;;;;;15.43;42.83;99085.00;4484685;31;33020;-63
2022/04/06 07:42:46;;;;;;;;;;;;;;;16.13;41.22;99094.72;4493826;31;33446;-62
2022/04/06 07:45:24;;;;;;;;;;;;;;;15.59;42.22;99086.94;4489025;31;34392;-63
2022/04/06 07:47:58;;;;;;;;;;;;;;;15.83;42.25;99086.22;4485516;31;33235;-63
2022/04/06 07:50:42;;;;;;;;;;;;;;;16.28;41.45;99087.66;4493055;31;34081;-63
2022/04/06 07:53:22;;;;;;;;;;;;;;;15.75;42.17;99087.03;4494230;31;34210;-64
2022/04/06 07:56:12;;;;;;;;;;;;;;;16.38;41.47;99090.19;4490607;31;32930;-63
2022/04/06 07:58:48;;;;;;;;;;;;;;;15.65;43.16;99094.37;4489096;31;32132;-63
2022/04/06 08:01:29;;;;;;;;;;;;;;;15.58;43.20;99096.88;4488028;31;33006;-68
2022/04/06 08:04:10;;;;;;;;;;;;;;;15.49;43.72;99095.16;4484702;31;32641;-68
2022/04/06 08:06:51;;;;;;;;;;;;;;;15.89;42.65;99093.66;4488258;31;33106;-65
2022/04/06 08:09:31;;;;;;;;;;;;;;;15.88;43.26;99088.41;4484392;31;32101;-66
2022/04/06 08:12:13;;;;;;;;;;;;;;;15.92;43.38;99090.62;4487306;31;33651;-64
2022/04/06 08:14:51;;;;;;;;;;;;;;;16.93;41.55;99086.81;4482871;32;34141;-67
2022/04/06 08:17:34;;;;;;;;;;;;;;;17.97;40.28;99084.94;4482877;32;32969;-66
2022/04/06 08:20:14;;;;;;;;;;;;;;;17.28;41.20;99090.12;4483840;32;33086;-66
2022/04/06 08:22:50;;;;;;;;;;;;;;;17.33;40.26;99098.53;4491567;31;34089;-69
2022/04/06 08:25:29;;;;;;;;;;;;;;;17.69;39.92;99093.53;4492522;31;33379;-66
2022/04/06 08:28:19;;;;;;;;;;;;;;;17.91;39.79;99081.94;4489751;31;34072;-63
2022/04/06 08:31:01;;;;;;;;;;;;;;;17.92;39.82;99082.78;4489135;31;32260;-64
2022/04/06 08:33:35;;;;;;;;;;;;;;;17.83;39.37;99091.97;4484069;31;32594;-64
2022/04/06 08:36:16;;;;;;;;;;;;;;;17.92;39.61;99086.31;4493355;31;34359;-64
2022/04/06 08:38:58;;;;;;;;;;;;;;;18.75;38.07;99089.31;4490445;31;33863;-64
2022/04/06 08:41:43;;;;;;;;;;;;;;;19.29;37.49;99089.97;4492015;31;33514;-64
2022/04/06 08:44:39;;;;;;;;;;;;;;;19.86;36.74;99087.59;4480143;31;34603;-62
2022/04/06 08:47:18;;;;;;;;;;;;;;;18.44;38.56;99097.50;4499409;31;33102;-67
2022/04/06 08:49:51;;;;;;;;;;;;;;;20.13;36.57;99088.75;4493985;31;34345;-65
2022/04/06 08:52:25;;;;;;;;;;;;;;;20.47;35.16;99082.62;4494182;31;33177;-64
2022/04/06 08:55:22;;;;;;;;;;;;;;;20.00;35.29;99084.03;4490081;31;33071;-64
2022/04/06 08:57:58;;;;;;;;;;;;;;;19.54;34.98;99081.53;4489482;31;34571;-64
2022/04/06 09:00:34;;;;;;;;;;;;;;;18.91;36.01;99080.16;4488322;31;34028;-64
2022/04/06 09:03:07;;;;;;;;;;;;;;;19.46;35.37;99073.50;4488315;31;33395;-65
2022/04/06 09:05:40;;;;;;;;;;;;;;;19.38;37.61;99084.44;4484953;32;33201;-64
2022/04/06 09:08:17;;;;;;;;;;;;;;;19.21;36.74;99075.62;4485460;32;34368;-66
2022/04/06 09:10:53;;;;;;;;;;;;;;;18.92;38.14;99077.28;4484739;32;33190;-65
2022/04/06 09:13:33;;;;;;;;;;;;;;;19.59;36.49;99076.38;4473851;32;32021;-65
2022/04/06 09:16:04;;;;;;;;;;;;;;;19.24;36.74;99077.97;4485956;32;33312;-67
2022/04/06 09:18:36;;;;;;;;;;;;;;;19.45;36.65;99069.06;4473557;32;34167;-64
2022/04/06 09:21:13;;;;;;;;;;;;;;;19.61;36.73;99077.00;4487318;31;35034;-66
2022/04/06 09:23:48;;;;;;;;;;;;;;;19.47;36.08;99067.84;4488807;31;33242;-64
2022/04/06 09:26:20;;;;;;;;;;;;;;;19.38;37.00;99073.56;4496620;31;34322;-65
2022/04/06 09:28:51;;;;;;;;;;;;;;;19.67;36.30;99061.88;4486798;31;34390;-65
2022/04/06 09:31:32;;;;;;;;;;;;;;;20.02;35.53;99063.75;4491161;31;33809;-65
2022/04/06 09:34:07;;;;;;;;;;;;;;;21.27;34.51;99064.22;4476765;31;32027;-64
2022/04/06 09:36:45;;;;;;;;;;;;;;;20.70;33.19;99063.41;4486460;31;34195;-66
2022/04/06 09:39:21;;;;;;;;;;;;;;;20.62;33.89;99053.50;4486408;31;33090;-68
2022/04/06 09:42:02;;;;;;;;;;;;;;;20.78;34.05;99054.28;4481890;31;32897;-65
2022/04/06 09:48:09;;;;;;;;;;;;;;;21.90;33.63;99053.25;4489584;31;33618;-66
2022/04/06 09:50:56;;;;;;;;;;;;;;;21.39;32.12;99032.72;4497338;31;33141;-65
2022/04/06 09:53:33;;;;;;;;;;;;;;;22.31;31.73;99031.34;4495411;31;33020;-66
2022/04/06 09:56:08;;;;;;;;;;;;;;;23.04;30.16;99028.62;4475366;31;34555;-65
2022/04/06 09:58:45;;;;;;;;;;;;;;;23.22;28.50;99015.16;4472328;31;34259;-64
2022/04/06 10:01:21;;;;;;;;;;;;;;;22.86;29.19;99007.44;4490428;31;33145;-64
2022/04/06 10:03:59;;;;;;;;;;;;;;;22.57;29.40;99011.47;4478563;31;34132;-65
2022/04/06 10:06:38;;;;;;;;;;;;;;;20.92;31.72;99020.69;4483368;31;33663;-67
2022/04/06 10:09:16;;;;;;;;;;;;;;;22.09;30.49;99015.16;4491521;31;34998;-65
2022/04/06 10:11:59;;;;;;;;;;;;;;;21.34;30.90;99016.09;4490809;31;32929;-64
2022/04/06 10:14:34;;;;;;;;;;;;;;;21.42;30.96;99010.53;4486394;31;33408;-64
2022/04/06 10:17:11;;;;;;;;;;;;;;;20.47;30.77;99003.78;4487908;31;32311;-64
2022/04/06 10:19:53;;;;;;;;;;;;;;;19.68;31.88;99004.69;4486419;31;34222;-63
2022/04/06 10:22:30;;;;;;;;;;;;;;;20.41;31.24;99008.13;4473688;31;33245;-65
2022/04/06 10:25:36;;;;;;;;;;;;;;;21.02;29.81;99001.28;4474327;31;34133;-64
2022/04/06 10:28:11;;;;;;;;;;;;;;;20.27;31.55;99008.22;4465384;31;32805;-64
2022/04/06 10:31:08;;;;;;;;;;;;;;;20.25;31.95;98997.53;4478109;31;33190;-64
2022/04/06 10:33:42;;;;;;;;;;;;;;;20.73;31.35;98988.75;4485303;31;32936;-66
2022/04/06 10:36:17;;;;;;;;;;;;;;;20.86;31.21;98995.09;4489586;31;35350;-65
2022/04/06 10:39:06;;;;;;;;;;;;;;;20.44;32.15;98987.87;4489308;31;34254;-67
2022/04/06 10:41:59;;;;;;;;;;;;;;;21.22;30.60;98983.22;4498573;31;33606;-68
2022/04/06 10:44:37;;;;;;;;;;;;;;;21.38;30.65;98990.22;4489390;31;34389;-68
2022/04/06 10:47:09;;;;;;;;;;;;;;;21.04;30.13;98991.88;4493231;31;34308;-69
2022/04/06 10:49:37;;;;;;;;;;;;;;;21.16;30.58;98978.56;4490712;31;33210;-66
2022/04/06 10:52:23;;;;;;;;;;;;;;;20.92;30.87;98978.00;4494786;31;34331;-67
2022/04/06 10:54:51;;;;;;;;;;;;;;;20.83;30.79;98981.06;4487759;31;35357;-69
2022/04/06 10:57:22;;;;;;;;;;;;;;;20.04;32.53;98971.22;4492474;31;33382;-66
2022/04/06 11:00:12;;;;;;;;;;;;;;;19.90;32.42;98972.13;4473158;31;33248;-66
2022/04/06 11:02:47;;;;;;;;;;;;;;;19.96;33.34;98968.62;4493511;31;34097;-67
2022/04/06 11:05:58;;;;;;;;;;;;;;;20.72;32.53;98965.31;4487168;31;35097;-65
2022/04/06 11:11:40;;;;;;;;;;;;;;;21.09;32.10;98962.22;4449577;32;33338;-68
2022/04/06 11:14:11;;;;;;;;;;;;;;;20.73;32.83;98948.78;4479475;31;33376;-64
2022/04/06 11:16:42;;;;;;;;;;;;;;;21.72;31.61;98947.59;4486104;31;33118;-68
2022/04/06 11:19:11;;;;;;;;;;;;;;;21.99;31.26;98943.88;4488481;31;34261;-64
2022/04/06 11:21:46;;;;;;;;;;;;;;;22.42;31.11;98935.31;4484918;31;34480;-65
2022/04/06 11:24:19;;;;;;;;;;;;;;;23.02;30.36;98922.44;4483890;31;34344;-66
2022/04/06 11:26:48;;;;;;;;;;;;;;;21.96;31.08;98927.94;4487861;31;33715;-67
2022/04/06 11:29:16;;;;;;;;;;;;;;;21.33;32.26;98927.34;4488093;31;35452;-66
2022/04/06 11:31:53;;;;;;;;;;;;;;;20.85;33.10;98920.00;4488919;31;33424;-65
2022/04/06 11:34:29;;;;;;;;;;;;;;;21.28;32.31;98917.06;4484514;31;33857;-65
2022/04/06 11:36:58;;;;;;;;;;;;;;;20.60;33.54;98916.94;4486976;31;34696;-65
2022/04/06 11:39:29;;;;;;;;;;;;;;;20.24;34.46;98917.91;4485353;31;34099;-65
2022/04/06 11:42:02;;;;;;;;;;;;;;;20.40;34.71;98907.78;4486927;31;33989;-65
2022/04/06 11:44:33;;;;;;;;;;;;;;;20.74;33.76;98906.13;4488231;31;34410;-65
2022/04/06 11:47:03;;;;;;;;;;;;;;;21.47;32.83;98901.03;4470124;31;32304;-66
2022/04/06 11:49:35;;;;;;;;;;;;;;;20.19;34.48;98895.94;4486038;31;34218;-73
2022/04/06 11:52:03;;;;;;;;;;;;;;;21.10;33.24;98884.12;4488252;31;33502;-66
2022/04/06 11:54:30;;;;;;;;;;;;;;;21.26;32.41;98882.94;4482521;31;34277;-66
2022/04/06 11:56:58;;;;;;;;;;;;;;;20.85;33.07;98876.50;4482832;32;34093;-65
2022/04/06 11:59:31;;;;;;;;;;;;;;;20.34;32.84;98878.69;4482518;32;34208;-65
2022/04/06 12:01:59;;;;;;;;;;;;;;;20.05;33.79;98880.53;4486703;31;32255;-65
2022/04/06 12:04:28;;;;;;;;;;;;;;;19.98;33.43;98872.34;4488439;31;32860;-65
2022/04/06 12:06:56;;;;;;;;;;;;;;;20.53;33.51;98860.84;4488045;31;33095;-65
2022/04/06 12:09:24;;;;;;;;;;;;;;;19.80;34.55;98852.13;4489825;31;33905;-65
2022/04/06 12:11:52;;;;;;;;;;;;;;;20.27;33.71;98851.47;4489177;31;34168;-65
2022/04/06 12:14:20;;;;;;;;;;;;;;;21.59;33.02;98840.31;4486983;31;34096;-65
2022/04/06 12:16:49;;;;;;;;;;;;;;;21.01;32.87;98839.12;4474051;31;34545;-66
2022/04/06 12:19:18;;;;;;;;;;;;;;;20.43;31.24;98836.72;4485754;31;34130;-69
2022/04/06 12:21:47;;;;;;;;;;;;;;;20.30;31.41;98836.63;4489986;31;33398;-68
2022/04/06 12:24:17;;;;;;;;;;;;;;;20.20;31.50;98831.56;4488803;31;34107;-65
2022/04/06 12:26:51;;;;;;;;;;;;;;;20.36;31.86;98812.22;4487608;31;34268;-65
2022/04/06 12:29:19;;;;;;;;;;;;;;;20.32;31.94;98819.09;4488658;31;33052;-66
2022/04/06 12:31:47;;;;;;;;;;;;;;;20.69;31.15;98815.12;4493947;31;33413;-66
2022/04/06 12:34:31;;;;;;;;;;;;;;;20.78;30.52;98810.38;4495012;31;33658;-67
2022/04/06 12:37:29;;;;;;;;;;;;;;;20.51;31.12;98814.81;4496528;31;35444;-65
2022/04/06 12:39:52;;;;;;;;;;;;;;;20.19;32.13;98811.72;4499031;31;33119;-65
2022/04/06 12:42:21;;;;;;;;;;;;;;;20.62;31.73;98803.41;4485322;31;33229;-64
2022/04/06 12:44:53;;;;;;;;;;;;;;;21.19;31.09;98787.69;4489198;31;34273;-65
2022/04/06 12:47:23;;;;;;;;;;;;;;;21.86;30.23;98788.56;4489121;31;33444;-64
2022/04/06 12:49:50;;;;;;;;;;;;;;;21.29;29.83;98776.41;4489301;31;35504;-65
2022/04/06 12:52:25;;;;;;;;;;;;;;;21.04;31.10;98766.09;4476841;31;33484;-66
2022/04/06 12:55:01;;;;;;;;;;;;;;;20.97;31.57;98767.13;4485568;31;34163;-66
2022/04/06 12:57:30;;;;;;;;;;;;;;;20.44;30.29;98765.84;4492472;31;33979;-64
2022/04/06 13:00:07;;;;;;;;;;;;;;;20.16;30.68;98767.78;4491779;31;33935;-65
2022/04/06 13:02:46;;;;;;;;;;;;;;;20.99;29.75;98762.28;4491062;31;32199;-65
2022/04/06 13:05:15;;;;;;;;;;;;;;;20.45;30.16;98766.69;4490348;31;35260;-64
2022/04/06 13:07:44;;;;;;;;;;;;;;;20.61;29.84;98749.22;4484580;31;32974;-65
2022/04/06 13:10:13;;;;;;;;;;;;;;;20.57;30.49;98754.22;4484811;31;34230;-69
2022/04/06 13:12:42;;;;;;;;;;;;;;;20.43;30.59;98738.88;4493377;31;33295;-66
2022/04/06 13:15:10;;;;;;;;;;;;;;;20.01;31.59;98738.88;4482777;31;34192;-65
2022/04/06 13:17:38;;;;;;;;;;;;;;;20.52;31.11;98745.03;4482444;31;33671;-66
2022/04/06 13:20:07;;;;;;;;;;;;;;;19.93;31.97;98754.47;4486032;31;34339;-67
2022/04/06 13:22:35;;;;;;;;;;;;;;;19.95;31.96;98734.22;4483179;31;33265;-65
2022/04/06 13:25:04;;;;;;;;;;;;;;;20.83;31.76;98720.00;4483541;31;32903;-69
2022/04/06 13:27:31;;;;;;;;;;;;;;;21.92;30.62;98716.06;4487546;31;32713;-68
2022/04/06 13:30:07;;;;;;;;;;;;;;;21.03;29.91;98709.19;4488389;31;33748;-64